Terminal Aerodrome Forecast
Issued by NWS Blacksburg, VA

Current Version | Previous Version | Graphics & Text | Print | Product List | Glossary On
Versions: 1 2 3 4 5 6 7 8 9 10 11 12 13 14 15 16 17 18 19 20 21 22 23 24 25 26 27 28 29 30 31 32 33 34 35 36 37 38 39 40 41 42 43 44
000
FTUS41 KRNK 011138 CCA
TAFBLF
TAF COR
KBLF 011138Z 0112/0212 VRB03KT P6SM OVC009
     FM011400 12004KT 4SM -RA BR SCT007 OVC015
     FM011900 13005KT P6SM -SHRA SCT020 OVC035
     FM020000 13006KT P6SM BKN025=

USA.gov is the U.S. government's official web portal to all federal, state and local government web resources and services.